Time;durP1;ratioP1;P1;durP2;ratioP2;P2;SDS_P1;SDS_P2;PMS_P1;PMS_P2;Temp;Humidity;BMP_temperature;BMP_pressure;BME280_temperature;BME280_humidity;BME280_pressure;Samples;Min_cycle;Max_cycle;Signal;HPM_P1;HPM_P2
2022/08/16 00:01:52;;;;;;;;;41.25;35.25;;;;;21.23;72.37;100270.00;5078765;28;45359;-78
2022/08/16 00:04:18;;;;;;;;;36.33;32.67;;;;;21.15;72.54;100263.16;5079170;28;45216;-78
2022/08/16 00:06:43;;;;;;;;;41.00;35.00;;;;;21.15;72.18;100268.56;5078993;28;45287;-78
2022/08/16 00:09:10;;;;;;;;;41.75;33.75;;;;;21.19;72.97;100279.69;5078725;28;45366;-78
2022/08/16 00:11:36;;;;;;;;;36.67;33.00;;;;;21.15;72.92;100282.06;5079074;28;45247;-78
2022/08/16 00:14:06;;;;;;;;;37.33;33.67;;;;;21.18;72.84;100291.56;5078645;28;45358;-78
2022/08/16 00:16:31;;;;;;;;;39.33;34.67;;;;;21.12;73.20;100284.47;5086593;27;45381;-78
2022/08/16 00:18:58;;;;;;;;;40.33;34.33;;;;;21.10;72.85;100292.81;5082015;27;45320;-78
2022/08/16 00:21:23;;;;;;;;;37.00;33.00;;;;;21.06;73.45;100280.91;5079075;28;45268;-78
2022/08/16 00:23:49;;;;;;;;;36.67;32.67;;;;;21.01;73.31;100270.88;5078606;28;45297;-78
2022/08/16 00:26:14;;;;;;;;;36.33;32.00;;;;;21.06;73.54;100286.31;5078994;28;45324;-78
2022/08/16 00:28:39;;;;;;;;;39.75;34.50;;;;;21.02;73.36;100286.03;5078870;28;45369;-78
2022/08/16 00:31:05;;;;;;;;;39.00;33.33;;;;;21.01;73.21;100288.97;5082217;28;45451;-78
2022/08/16 00:33:30;;;;;;;;;40.50;35.25;;;;;20.98;73.63;100273.28;5082238;27;45242;-79
2022/08/16 00:35:56;;;;;;;;;36.33;32.33;;;;;21.03;73.29;100284.13;5082241;28;46281;-78
2022/08/16 00:38:21;;;;;;;;;37.00;32.33;;;;;21.01;73.37;100294.38;5081859;28;45499;-78
2022/08/16 00:40:50;;;;;;;;;39.33;33.67;;;;;21.03;73.47;100306.56;5082478;28;45431;-79
2022/08/16 00:43:20;;;;;;;;;40.00;35.00;;;;;21.03;73.53;100301.16;5081813;28;45328;-78
2022/08/16 00:46:00;;;;;;;;;39.67;34.00;;;;;20.96;73.43;100292.44;5081942;28;45291;-78
2022/08/16 00:48:27;;;;;;;;;37.75;33.50;;;;;21.01;73.15;100300.56;5081733;28;45374;-78
2022/08/16 00:50:53;;;;;;;;;38.00;34.33;;;;;20.92;73.54;100296.72;5082092;28;45298;-78
2022/08/16 00:53:18;;;;;;;;;39.75;34.75;;;;;20.89;73.63;100289.09;5081715;28;45233;-78
2022/08/16 00:55:49;;;;;;;;;37.25;33.50;;;;;20.91;73.57;100292.38;5081796;28;45397;-78
2022/08/16 00:58:16;;;;;;;;;40.50;36.00;;;;;20.90;73.40;100290.75;5081900;28;45487;-78
2022/08/16 01:00:45;;;;;;;;;41.75;34.00;;;;;20.81;73.77;100280.38;5082013;28;45359;-78
2022/08/16 01:03:14;;;;;;;;;39.67;34.00;;;;;20.78;73.92;100282.78;5081504;28;45449;-78
2022/08/16 01:05:41;;;;;;;;;43.00;36.00;;;;;20.78;73.92;100283.59;5076861;28;46047;-78
2022/08/16 01:08:10;;;;;;;;;38.33;33.67;;;;;20.83;73.73;100287.41;5072972;28;45418;-78
2022/08/16 01:10:35;;;;;;;;;43.25;36.00;;;;;20.75;74.32;100278.69;5081664;28;45382;-78
2022/08/16 01:13:09;;;;;;;;;36.67;33.00;;;;;20.72;74.03;100279.22;5081626;28;45232;-79
2022/08/16 01:15:38;;;;;;;;;41.00;35.67;;;;;20.70;74.57;100281.34;5081554;28;45254;-78
2022/08/16 01:18:06;;;;;;;;;37.67;32.33;;;;;20.73;74.44;100280.00;5070391;28;45402;-78
2022/08/16 01:20:39;;;;;;;;;37.33;34.00;;;;;20.70;74.53;100286.72;5081403;28;45352;-78
2022/08/16 01:23:13;;;;;;;;;39.25;35.00;;;;;20.71;74.25;100284.88;5081450;28;45365;-78
2022/08/16 01:25:44;;;;;;;;;42.00;35.33;;;;;20.62;74.50;100269.09;5081197;28;45372;-78
2022/08/16 01:28:16;;;;;;;;;40.00;34.67;;;;;20.66;74.36;100278.34;5081510;28;45284;-78
2022/08/16 01:30:46;;;;;;;;;39.25;34.75;;;;;20.58;74.51;100267.97;5081282;28;45329;-78
2022/08/16 01:33:12;;;;;;;;;39.00;32.33;;;;;20.56;74.82;100270.94;5081160;28;45517;-78
2022/08/16 01:35:46;;;;;;;;;39.75;33.50;;;;;20.60;75.49;100267.72;5081142;28;46311;-78
2022/08/16 01:38:22;;;;;;;;;42.00;34.33;;;;;20.61;75.40;100278.28;5081242;28;45518;-78
2022/08/16 01:40:51;;;;;;;;;38.67;33.67;;;;;20.61;75.22;100270.19;5080140;28;45308;-78
2022/08/16 01:43:16;;;;;;;;;34.67;31.67;;;;;20.61;75.57;100269.34;5081182;28;45314;-78
2022/08/16 01:45:43;;;;;;;;;38.67;33.33;;;;;20.60;75.49;100268.56;5081101;27;45602;-78
2022/08/16 01:48:09;;;;;;;;;38.00;33.67;;;;;20.62;75.25;100268.31;5081056;28;45330;-78
2022/08/16 01:50:35;;;;;;;;;43.25;36.50;;;;;20.62;75.28;100269.09;5081391;28;45335;-78
2022/08/16 01:53:01;;;;;;;;;40.75;35.75;;;;;20.69;75.63;100283.22;5080890;28;45272;-78
2022/08/16 01:55:27;;;;;;;;;39.33;33.33;;;;;20.66;75.23;100275.66;5080699;28;45360;-78
2022/08/16 01:57:52;;;;;;;;;41.25;36.00;;;;;20.61;75.50;100272.06;5081095;28;45430;-78
2022/08/16 02:00:18;;;;;;;;;33.33;30.67;;;;;20.64;75.85;100282.34;5081131;28;45408;-78
2022/08/16 02:02:44;;;;;;;;;41.25;35.50;;;;;20.63;75.47;100289.66;5080974;28;45645;-78
2022/08/16 02:05:11;;;;;;;;;42.25;36.00;;;;;20.64;75.50;100293.16;5080706;28;46472;-78
2022/08/16 02:07:37;;;;;;;;;39.50;34.50;;;;;20.54;75.57;100275.78;5080860;28;45447;-78
2022/08/16 02:10:07;;;;;;;;;38.75;34.50;;;;;20.59;75.65;100283.09;5080738;28;45309;-78
2022/08/16 02:12:33;;;;;;;;;40.50;35.25;;;;;20.54;76.00;100288.47;5080315;28;45564;-78
2022/08/16 02:14:58;;;;;;;;;40.25;35.00;;;;;20.53;76.23;100284.13;5080592;28;46646;-79
2022/08/16 02:17:24;;;;;;;;;37.67;32.67;;;;;20.51;76.10;100289.78;5091597;27;45305;-78
2022/08/16 02:19:50;;;;;;;;;42.33;36.33;;;;;20.51;75.98;100297.06;5079528;28;45282;-78
2022/08/16 02:22:18;;;;;;;;;39.25;34.50;;;;;20.40;76.09;100279.91;5080513;28;45560;-79
2022/08/16 02:24:44;;;;;;;;;40.00;34.00;;;;;20.42;76.30;100291.28;5080489;28;45310;-78
2022/08/16 02:27:10;;;;;;;;;39.25;32.75;;;;;20.37;76.15;100277.72;5080304;28;45329;-77
2022/08/16 02:29:37;;;;;;;;;36.00;32.67;;;;;20.36;76.04;100276.94;5080739;28;45272;-78
2022/08/16 02:32:03;;;;;;;;;42.25;36.50;;;;;20.33;76.62;100273.91;5080170;28;45475;-78
2022/08/16 02:34:29;;;;;;;;;43.33;37.00;;;;;20.35;76.60;100279.88;5080157;27;46573;-78
2022/08/16 02:36:54;;;;;;;;;40.67;35.00;;;;;20.27;76.68;100268.47;5080150;28;45267;-78
2022/08/16 02:39:20;;;;;;;;;43.33;37.33;;;;;20.29;76.58;100277.09;5080338;28;45365;-78
2022/08/16 02:41:50;;;;;;;;;41.67;34.33;;;;;20.29;76.69;100282.50;5079963;28;45347;-78
2022/08/16 02:44:15;;;;;;;;;43.00;36.75;;;;;20.27;76.74;100268.47;5080391;28;45490;-78
2022/08/16 02:46:42;;;;;;;;;42.25;36.00;;;;;20.31;76.82;100272.28;5079831;28;45219;-78
2022/08/16 02:49:09;;;;;;;;;45.25;37.75;;;;;20.30;77.08;100269.84;5080400;28;45302;-78
2022/08/16 02:51:37;;;;;;;;;38.33;33.67;;;;;20.30;77.04;100264.44;5079437;28;45259;-78
2022/08/16 02:54:04;;;;;;;;;43.50;36.75;;;;;20.31;77.24;100247.16;5080001;28;45515;-78
2022/08/16 02:56:29;;;;;;;;;42.50;36.00;;;;;20.22;77.22;100229.78;5080017;28;45331;-78
2022/08/16 02:58:55;;;;;;;;;45.25;38.25;;;;;20.34;77.46;100246.66;5079942;28;45752;-78
2022/08/16 03:01:24;;;;;;;;;41.50;36.50;;;;;20.29;77.18;100247.41;5079857;28;45428;-78
2022/08/16 03:03:50;;;;;;;;;41.00;36.00;;;;;20.34;77.12;100243.97;5079742;28;45457;-78
2022/08/16 03:06:19;;;;;;;;;43.67;37.67;;;;;20.40;77.24;100242.13;5079954;28;45436;-78
2022/08/16 03:08:46;;;;;;;;;40.50;35.75;;;;;20.28;77.61;100221.50;5079758;28;45282;-78
2022/08/16 03:11:11;;;;;;;;;43.00;36.25;;;;;20.31;77.42;100223.72;5079692;28;45484;-78
2022/08/16 03:13:37;;;;;;;;;43.25;35.25;;;;;20.28;77.36;100216.13;5079536;28;46035;-78
2022/08/16 03:16:04;;;;;;;;;42.75;36.50;;;;;20.26;77.83;100212.06;5083622;27;45368;-78
2022/08/16 03:18:29;;;;;;;;;44.50;37.75;;;;;20.31;77.66;100206.69;5086951;27;45395;-78
2022/08/16 03:20:55;;;;;;;;;46.50;39.25;;;;;20.34;77.73;100224.25;5079365;28;45350;-78
2022/08/16 03:23:21;;;;;;;;;43.00;37.75;;;;;20.32;77.83;100227.22;5079537;28;45350;-78
2022/08/16 03:25:47;;;;;;;;;43.33;37.00;;;;;20.33;78.01;100217.25;5079571;28;46327;-78
2022/08/16 03:28:13;;;;;;;;;42.50;36.75;;;;;20.42;78.24;100223.81;5079764;28;45215;-79
2022/08/16 03:30:38;;;;;;;;;44.50;38.00;;;;;20.40;78.01;100225.94;5079380;28;45370;-78
2022/08/16 03:33:04;;;;;;;;;43.75;37.75;;;;;20.41;78.23;100233.00;5078949;28;46397;-78
2022/08/16 03:35:32;;;;;;;;;45.00;38.25;;;;;20.33;78.52;100218.06;5079548;28;45362;-78
2022/08/16 03:38:00;;;;;;;;;39.67;34.00;;;;;20.35;78.61;100223.22;5079160;28;45430;-78
2022/08/16 03:40:26;;;;;;;;;44.00;38.00;;;;;20.43;78.23;100226.28;5079391;28;45808;-78
2022/08/16 03:42:52;;;;;;;;;41.33;35.00;;;;;20.37;77.84;100213.78;5079267;28;45350;-78
2022/08/16 03:45:18;;;;;;;;;42.50;37.25;;;;;20.43;78.05;100225.44;5078987;28;45315;-78
2022/08/16 03:47:46;;;;;;;;;41.33;35.33;;;;;20.48;77.77;100241.72;5078981;28;45385;-78
2022/08/16 03:50:13;;;;;;;;;42.25;36.25;;;;;20.42;78.01;100238.09;5079138;28;45353;-79
2022/08/16 03:52:38;;;;;;;;;43.00;37.50;;;;;20.37;78.05;100227.28;5078961;28;46319;-78
2022/08/16 03:55:04;;;;;;;;;44.00;35.75;;;;;20.41;77.82;100236.50;5079050;28;45287;-78
2022/08/16 03:57:30;;;;;;;;;39.25;34.75;;;;;20.42;77.87;100242.72;5079445;28;45482;-79
2022/08/16 03:59:55;;;;;;;;;40.25;35.00;;;;;20.37;77.85;100245.34;5078964;28;45434;-79
2022/08/16 04:02:21;;;;;;;;;42.50;37.00;;;;;20.30;77.82;100240.16;5078777;28;45373;-78
2022/08/16 04:04:47;;;;;;;;;44.25;37.25;;;;;20.34;77.78;100246.66;5080837;28;45264;-79
2022/08/16 04:07:14;;;;;;;;;42.33;36.33;;;;;20.35;78.05;100260.97;5082643;28;45328;-78
2022/08/16 04:09:40;;;;;;;;;44.50;37.25;;;;;20.30;77.91;100251.75;5082237;28;45358;-78
2022/08/16 04:12:08;;;;;;;;;45.25;37.75;;;;;20.29;78.20;100260.91;5082374;28;46036;-78
2022/08/16 04:14:33;;;;;;;;;41.25;35.50;;;;;20.28;78.01;100263.84;5082426;28;45401;-78
2022/08/16 04:16:59;;;;;;;;;39.50;35.00;;;;;20.26;78.13;100261.41;5093802;27;45243;-80
2022/08/16 04:19:26;;;;;;;;;38.50;34.25;;;;;20.17;78.02;100247.53;5082391;28;45475;-79
2022/08/16 04:21:52;;;;;;;;;44.50;38.75;;;;;20.22;78.40;100262.97;5082421;28;45364;-78
2022/08/16 04:24:17;;;;;;;;;44.00;36.75;;;;;20.18;78.20;100257.25;5082193;28;45486;-77
2022/08/16 04:26:43;;;;;;;;;42.00;36.50;;;;;20.11;78.25;100261.22;5082676;28;45778;-78
2022/08/16 04:29:08;;;;;;;;;40.67;36.00;;;;;20.07;78.29;100266.31;5082215;28;45580;-79
2022/08/16 04:31:34;;;;;;;;;41.75;35.75;;;;;19.99;78.79;100264.81;5082189;28;45464;-78
2022/08/16 04:33:59;;;;;;;;;45.25;37.00;;;;;19.99;78.68;100264.81;5082348;27;45252;-78
2022/08/16 04:36:26;;;;;;;;;41.50;35.50;;;;;20.02;79.34;100277.03;5082422;28;45346;-78
2022/08/16 04:38:52;;;;;;;;;43.00;37.00;;;;;19.96;79.17;100286.09;5082068;28;45524;-77
2022/08/16 04:41:18;;;;;;;;;42.75;36.50;;;;;19.94;79.30;100281.72;5081858;28;45443;-78
2022/08/16 04:43:43;;;;;;;;;43.00;36.75;;;;;19.97;79.32;100288.53;5082203;28;45294;-78
2022/08/16 04:46:09;;;;;;;;;42.50;36.75;;;;;19.87;79.33;100277.59;5090252;27;45388;-78
2022/08/16 04:48:34;;;;;;;;;44.25;37.75;;;;;19.88;79.22;100287.31;5081768;28;45552;-78
2022/08/16 04:51:00;;;;;;;;;44.50;34.25;;;;;19.93;79.33;100282.81;5081922;28;45383;-78
2022/08/16 04:53:27;;;;;;;;;45.00;37.50;;;;;19.85;79.70;100275.16;5081714;28;45353;-78
2022/08/16 04:55:53;;;;;;;;;42.75;36.75;;;;;19.87;79.42;100291.09;5081971;28;45363;-78
2022/08/16 04:58:19;;;;;;;;;37.67;33.33;;;;;19.86;79.89;100271.38;5081630;28;45363;-77
2022/08/16 05:00:45;;;;;;;;;38.50;34.50;;;;;19.88;79.68;100280.06;5082040;28;45295;-78
2022/08/16 05:03:11;;;;;;;;;40.25;33.75;;;;;19.87;80.06;100277.59;5081626;28;45268;-78
2022/08/16 05:05:40;;;;;;;;;40.00;34.00;;;;;19.99;79.99;100288.28;5075451;28;45648;-76
2022/08/16 05:08:07;;;;;;;;;36.67;33.00;;;;;19.96;79.90;100286.09;5081429;28;45487;-78
2022/08/16 05:10:33;;;;;;;;;38.33;33.33;;;;;20.04;79.88;100289.19;5069347;28;45370;-78
2022/08/16 05:13:00;;;;;;;;;39.00;34.00;;;;;20.11;79.90;100299.00;5081129;28;45458;-80
2022/08/16 05:15:27;;;;;;;;;42.33;35.67;;;;;20.10;79.43;100287.38;5081844;28;45245;-82
2022/08/16 05:17:53;;;;;;;;;38.67;33.33;;;;;20.11;79.71;100272.81;5095952;27;46995;-82
2022/08/16 05:20:19;;;;;;;;;35.67;32.67;;;;;20.17;79.63;100277.22;5082973;28;46271;-81
2022/08/16 05:22:45;;;;;;;;;41.75;36.00;;;;;20.27;79.48;100298.13;5082095;28;45323;-84
2022/08/16 05:25:11;;;;;;;;;38.67;33.67;;;;;20.25;79.64;100294.03;5081932;28;45327;-82
2022/08/16 05:27:38;;;;;;;;;38.00;34.00;;;;;20.32;79.44;100300.06;5081709;28;45421;-80
2022/08/16 05:30:06;;;;;;;;;37.00;33.00;;;;;20.33;79.26;100284.69;5081533;28;45382;-78
2022/08/16 05:32:32;;;;;;;;;39.67;34.00;;;;;20.37;79.54;100292.03;5081755;28;45519;-80
2022/08/16 05:34:57;;;;;;;;;39.67;34.67;;;;;20.37;79.48;100293.91;5077715;27;45617;-80
2022/08/16 05:37:23;;;;;;;;;39.33;34.33;;;;;20.41;79.33;100301.25;5062273;28;45430;-78
2022/08/16 05:39:49;;;;;;;;;40.67;33.67;;;;;20.51;79.30;100308.69;5094430;27;47042;-80
2022/08/16 05:42:15;;;;;;;;;38.50;32.50;;;;;20.56;79.65;100308.72;5062028;28;45421;-80
2022/08/16 05:44:40;;;;;;;;;43.00;35.67;;;;;20.61;79.40;100312.53;5062171;28;45402;-80
2022/08/16 05:47:06;;;;;;;;;37.75;33.75;;;;;20.63;79.57;100315.81;5072502;28;45529;-80
2022/08/16 05:49:31;;;;;;;;;42.25;35.25;;;;;20.77;79.23;100329.75;5081137;28;45473;-80
2022/08/16 05:51:58;;;;;;;;;38.00;34.00;;;;;20.81;79.12;100330.88;5081350;28;45352;-80
2022/08/16 05:54:25;;;;;;;;;35.00;31.67;;;;;20.89;78.73;100335.00;5081875;28;45162;-81
2022/08/16 05:56:50;;;;;;;;;36.00;33.33;;;;;20.91;78.84;100322.09;5073972;28;45547;-78
2022/08/16 05:59:17;;;;;;;;;37.67;33.67;;;;;20.88;78.65;100311.75;5076694;28;45588;-79
2022/08/16 06:01:49;;;;;;;;;33.33;31.00;;;;;20.94;78.38;100311.59;5089206;28;45340;-79
2022/08/16 06:04:15;;;;;;;;;34.00;30.25;;;;;21.01;78.08;100321.38;5085898;27;45219;-79
2022/08/16 06:06:42;;;;;;;;;39.33;33.67;;;;;20.93;77.43;100315.38;5083010;27;45475;-80
2022/08/16 06:09:07;;;;;;;;;32.00;30.00;;;;;20.94;77.83;100311.59;5082220;28;46533;-79
2022/08/16 06:11:33;;;;;;;;;36.33;33.33;;;;;21.03;77.82;100324.63;5067433;28;45334;-79
2022/08/16 06:13:58;;;;;;;;;37.00;32.00;;;;;20.98;77.67;100313.78;5080912;28;45389;-79
2022/08/16 06:16:24;;;;;;;;;33.33;31.33;;;;;21.05;77.71;100325.22;5087476;27;45389;-79
2022/08/16 06:18:49;;;;;;;;;30.00;29.67;;;;;21.06;78.15;100321.44;5080455;28;45395;-79
2022/08/16 06:21:14;;;;;;;;;36.67;32.67;;;;;21.07;77.47;100314.94;5080842;28;45368;-78
2022/08/16 06:23:40;;;;;;;;;30.33;29.00;;;;;21.06;77.80;100316.84;5080662;28;45393;-79
2022/08/16 06:26:06;;;;;;;;;37.67;32.67;;;;;21.11;77.42;100328.78;5083539;28;45458;-82
2022/08/16 06:28:32;;;;;;;;;32.00;30.67;;;;;21.16;77.40;100342.34;5089020;28;48575;-80
2022/08/16 06:30:58;;;;;;;;;32.67;30.67;;;;;21.19;77.12;100344.53;5101177;28;44676;-81
2022/08/16 06:33:23;;;;;;;;;33.33;30.00;;;;;21.23;76.68;100348.34;5102131;28;45262;-81
2022/08/16 06:35:53;;;;;;;;;32.67;30.33;;;;;21.30;77.30;100354.34;5105813;27;45464;-81
2022/08/16 06:38:18;;;;;;;;;29.33;29.00;;;;;21.31;76.50;100347.88;5091286;28;47462;-83
2022/08/16 06:40:44;;;;;;;;;30.00;29.00;;;;;21.40;77.08;100350.91;5078068;27;45386;-81
2022/08/16 06:43:09;;;;;;;;;31.33;29.00;;;;;21.55;77.03;100362.97;5093378;27;45352;-80
2022/08/16 06:45:39;;;;;;;;;33.00;29.67;;;;;21.55;76.57;100352.94;5081514;28;46146;-82
2022/08/16 06:48:05;;;;;;;;;30.33;29.00;;;;;21.60;76.50;100345.94;5091479;27;46659;-81
2022/08/16 06:50:32;;;;;;;;;31.67;28.33;;;;;21.59;76.21;100342.44;5080587;28;45220;-81
2022/08/16 06:52:58;;;;;;;;;37.33;29.67;;;;;21.63;76.29;100337.31;5080476;28;45473;-80
2022/08/16 06:55:23;;;;;;;;;32.67;29.67;;;;;21.75;76.13;100354.22;5080220;28;45539;-81
2022/08/16 06:57:51;;;;;;;;;32.67;29.67;;;;;21.71;76.55;100334.16;5089435;27;48038;-80
2022/08/16 07:00:17;;;;;;;;;29.67;28.33;;;;;21.69;76.13;100331.69;5075826;28;45290;-80
2022/08/16 07:02:43;;;;;;;;;32.00;30.33;;;;;21.82;75.86;100338.56;5061915;28;45268;-80
2022/08/16 07:05:11;;;;;;;;;29.67;28.67;;;;;21.80;76.33;100327.22;5078436;28;45507;-81
2022/08/16 07:07:38;;;;;;;;;31.67;30.00;;;;;21.87;76.04;100340.50;5079777;28;46186;-80
2022/08/16 07:10:07;;;;;;;;;27.33;27.33;;;;;21.85;75.44;100336.44;5079606;28;45357;-80
2022/08/16 07:12:32;;;;;;;;;31.33;28.67;;;;;21.86;75.34;100343.47;5081570;28;45370;-80
2022/08/16 07:14:59;;;;;;;;;27.00;24.33;;;;;21.93;75.83;100344.88;5067725;28;45413;-79
2022/08/16 07:17:25;;;;;;;;;27.00;25.67;;;;;22.00;75.58;100355.44;5089975;27;45459;-80
2022/08/16 07:19:51;;;;;;;;;30.33;29.67;;;;;22.06;75.79;100350.91;5075507;28;45249;-78
2022/08/16 07:22:18;;;;;;;;;24.67;24.67;;;;;22.05;75.63;100344.69;5080464;28;45611;-78
2022/08/16 07:24:43;;;;;;;;;26.33;25.33;;;;;22.15;75.72;100345.81;5094229;28;45327;-78
2022/08/16 07:27:10;;;;;;;;;28.33;28.00;;;;;22.28;75.21;100356.19;5096530;27;45924;-78
2022/08/16 07:29:36;;;;;;;;;25.33;25.33;;;;;22.26;75.30;100342.09;5074218;27;45436;-78
2022/08/16 07:32:02;;;;;;;;;28.33;26.67;;;;;22.43;75.17;100354.63;5093291;27;45390;-78
2022/08/16 07:34:29;;;;;;;;;26.67;26.67;;;;;22.39;74.85;100335.38;5075458;28;47248;-81
2022/08/16 07:36:55;;;;;;;;;26.33;25.33;;;;;22.59;74.57;100347.41;5081261;28;45422;-80
2022/08/16 07:39:20;;;;;;;;;24.67;23.67;;;;;22.65;74.18;100350.94;5083063;28;45363;-82
2022/08/16 07:41:46;;;;;;;;;17.67;17.67;;;;;22.72;74.26;100351.53;5073934;28;45236;-82
2022/08/16 07:44:11;;;;;;;;;22.67;22.67;;;;;22.75;73.58;100342.03;5087339;28;46114;-82
2022/08/16 07:46:36;;;;;;;;;25.00;25.00;;;;;22.77;73.74;100345.28;5086998;27;46438;-82
2022/08/16 07:49:03;;;;;;;;;24.00;23.67;;;;;22.87;73.33;100355.34;5087676;28;45569;-82
2022/08/16 07:51:33;;;;;;;;;26.67;26.67;;;;;22.86;72.95;100351.81;5105131;27;45334;-82
2022/08/16 07:54:01;;;;;;;;;26.67;26.67;;;;;22.88;72.76;100351.56;5075422;28;45248;-82
2022/08/16 07:56:27;;;;;;;;;26.67;24.33;;;;;22.95;72.88;100354.81;5088011;28;45386;-82
2022/08/16 07:58:53;;;;;;;;;26.33;25.67;;;;;22.99;72.51;100353.22;5086331;28;45364;-82
2022/08/16 08:01:18;;;;;;;;;24.00;24.00;;;;;23.17;73.17;100364.63;5087465;28;45448;-82
2022/08/16 08:03:44;;;;;;;;;21.00;19.67;;;;;23.13;72.34;100350.00;5088928;28;45389;-82
2022/08/16 08:06:10;;;;;;;;;26.00;26.00;;;;;23.22;72.35;100350.28;5088028;28;46678;-82
2022/08/16 08:08:36;;;;;;;;;29.33;27.00;;;;;23.37;72.32;100365.78;5099726;27;45425;-82
2022/08/16 08:11:01;;;;;;;;;26.67;23.00;;;;;23.37;72.56;100357.63;5083208;28;45361;-82
2022/08/16 08:13:28;;;;;;;;;26.00;24.67;;;;;23.45;72.12;100367.94;5075597;27;45401;-82
2022/08/16 08:15:53;;;;;;;;;27.33;24.00;;;;;23.57;71.50;100373.91;5090516;27;45415;-82
2022/08/16 08:18:19;;;;;;;;;26.00;23.00;;;;;23.63;71.44;100363.88;5092517;27;45199;-83
2022/08/16 08:20:44;;;;;;;;;26.33;24.67;;;;;23.70;71.05;100377.97;5069868;28;45330;-82
2022/08/16 08:23:12;;;;;;;;;22.00;22.00;;;;;23.73;70.94;100359.53;5086036;28;45449;-82
2022/08/16 08:25:41;;;;;;;;;24.00;23.33;;;;;23.88;71.55;100372.28;5070487;28;47965;-82
2022/08/16 08:28:07;;;;;;;;;27.00;24.33;;;;;24.02;69.87;100376.03;5102901;27;45322;-82
2022/08/16 08:30:34;;;;;;;;;24.00;24.00;;;;;24.17;69.83;100369.81;5082941;28;45260;-83
2022/08/16 08:32:59;;;;;;;;;25.67;25.67;;;;;24.30;69.50;100371.13;5085209;28;45365;-82
2022/08/16 08:35:25;;;;;;;;;19.00;19.00;;;;;24.33;68.40;100365.13;5080697;28;45318;-82
2022/08/16 08:37:50;;;;;;;;;24.33;24.33;;;;;24.33;68.27;100370.56;5076845;28;45234;-82
2022/08/16 08:40:16;;;;;;;;;24.33;24.33;;;;;24.44;68.16;100382.22;5066810;28;45296;-82
2022/08/16 08:42:42;;;;;;;;;23.00;21.00;;;;;24.36;68.38;100371.13;5083023;27;47214;-82
2022/08/16 08:45:10;;;;;;;;;19.67;19.67;;;;;24.46;68.56;100374.59;5085927;28;47240;-83
2022/08/16 08:47:35;;;;;;;;;22.33;22.00;;;;;24.45;68.22;100367.53;5082554;28;45534;-83
2022/08/16 08:50:03;;;;;;;;;24.00;24.00;;;;;24.58;68.44;100387.84;5083853;28;45268;-83
2022/08/16 08:52:28;;;;;;;;;24.67;23.00;;;;;24.60;68.22;100374.00;5086692;28;45243;-83
2022/08/16 08:54:54;;;;;;;;;22.33;21.33;;;;;24.59;67.67;100370.47;5086352;28;45426;-81
2022/08/16 08:57:20;;;;;;;;;23.67;22.67;;;;;24.70;67.68;100384.00;5063872;28;45618;-82
2022/08/16 08:59:45;;;;;;;;;20.67;20.67;;;;;24.69;67.26;100380.47;5078906;28;45299;-83
2022/08/16 09:02:15;;;;;;;;;19.67;19.67;;;;;24.82;67.93;100386.41;5080449;28;45306;-82
2022/08/16 09:04:42;;;;;;;;;24.33;24.33;;;;;24.82;67.16;100381.78;5062521;28;46021;-82
2022/08/16 09:07:08;;;;;;;;;22.67;22.33;;;;;24.86;66.70;100381.22;5082290;28;45353;-82
2022/08/16 09:09:33;;;;;;;;;23.00;22.67;;;;;24.94;66.31;100388.81;5074728;28;45236;-82
2022/08/16 09:11:59;;;;;;;;;21.67;20.67;;;;;25.01;66.40;100386.59;5080512;28;45243;-83
2022/08/16 09:14:25;;;;;;;;;20.33;20.33;;;;;25.01;65.83;100396.66;5089927;27;46090;-82
2022/08/16 09:16:51;;;;;;;;;25.00;23.67;;;;;25.03;66.17;100384.41;5103169;27;45435;-82
2022/08/16 09:19:16;;;;;;;;;25.33;23.67;;;;;25.19;66.36;100395.19;5083094;27;45472;-80
2022/08/16 09:21:42;;;;;;;;;22.00;21.33;;;;;25.29;65.58;100402.47;5080238;28;45330;-79
2022/08/16 09:24:08;;;;;;;;;18.67;18.67;;;;;25.31;65.53;100392.13;5072502;28;46433;-79
2022/08/16 09:26:33;;;;;;;;;21.00;21.00;;;;;25.39;65.75;100396.16;5074016;28;45526;-78
2022/08/16 09:28:59;;;;;;;;;20.00;20.00;;;;;25.49;64.18;100400.72;5063938;28;45480;-78
2022/08/16 09:31:24;;;;;;;;;25.67;24.67;;;;;25.56;64.24;100409.38;5081126;28;45441;-78
2022/08/16 09:33:51;;;;;;;;;20.33;20.33;;;;;25.56;64.07;100401.19;5076347;28;47155;-78
2022/08/16 09:36:17;;;;;;;;;20.67;20.67;;;;;25.61;64.48;100401.19;5076527;28;45405;-78
2022/08/16 09:38:42;;;;;;;;;22.67;22.67;;;;;25.73;63.89;100402.72;5081398;28;45326;-79
2022/08/16 09:41:09;;;;;;;;;22.67;21.33;;;;;25.82;63.29;100412.69;5081326;28;45405;-79
2022/08/16 09:43:35;;;;;;;;;23.00;22.33;;;;;25.76;63.05;100396.69;5074249;28;46337;-78
2022/08/16 09:46:03;;;;;;;;;23.00;21.33;;;;;25.76;63.18;100392.06;5081461;28;45267;-79
2022/08/16 09:48:31;;;;;;;;;22.00;22.00;;;;;25.88;63.33;100405.31;5081229;28;45397;-79
2022/08/16 09:50:57;;;;;;;;;22.00;22.00;;;;;25.87;63.21;100391.97;5081081;28;45352;-77
2022/08/16 09:53:22;;;;;;;;;17.00;17.00;;;;;26.03;63.43;100400.81;5081083;28;46215;-78
2022/08/16 09:55:52;;;;;;;;;22.33;22.33;;;;;26.18;63.77;100394.38;5080717;28;45224;-78
2022/08/16 09:58:30;;;;;;;;;19.67;19.33;;;;;26.42;63.31;100401.78;5071813;28;45354;-78
2022/08/16 10:00:56;;;;;;;;;19.00;18.00;;;;;26.55;63.27;100405.75;5079630;28;46022;-79
2022/08/16 10:03:21;;;;;;;;;22.33;21.67;;;;;26.63;61.94;100396.09;5080742;28;45381;-81
2022/08/16 10:05:48;;;;;;;;;24.67;22.00;;;;;26.69;60.18;100389.47;5080796;28;45364;-80
2022/08/16 10:08:15;;;;;;;;;17.67;17.67;;;;;26.75;59.66;100401.94;5081366;28;45267;-79
2022/08/16 10:13:10;;;;;;;;;21.33;21.33;;;;;26.83;59.87;100411.38;5080995;28;45321;-81
2022/08/16 10:13:28;;;;;;;;;20.33;19.00;;;;;26.84;60.70;100396.63;5069076;27;45287;-81
2022/08/16 10:15:58;;;;;;;;;25.33;23.00;;;;;26.95;59.45;100400.03;5082952;27;45296;-82
2022/08/16 10:18:28;;;;;;;;;16.67;16.67;;;;;27.06;59.48;100398.81;5080965;28;45313;-81
2022/08/16 10:20:54;;;;;;;;;19.00;18.67;;;;;27.25;59.18;100405.38;5080600;27;45410;-81
2022/08/16 10:23:20;;;;;;;;;17.67;17.33;;;;;27.22;58.54;100399.41;5080495;28;46315;-80
2022/08/16 10:25:47;;;;;;;;;20.67;19.67;;;;;27.29;57.72;100409.16;5080534;28;45311;-81
2022/08/16 10:28:13;;;;;;;;;16.00;16.00;;;;;27.31;58.28;100396.81;5080658;28;45305;-81
2022/08/16 10:30:42;;;;;;;;;16.00;16.00;;;;;27.42;58.69;100404.84;5080765;28;45315;-81
2022/08/16 10:33:09;;;;;;;;;16.67;16.67;;;;;27.53;58.52;100405.50;5080179;28;45400;-81
2022/08/16 10:35:34;;;;;;;;;18.33;18.00;;;;;27.54;58.13;100398.94;5080662;28;45256;-80
2022/08/16 10:38:00;;;;;;;;;18.67;17.33;;;;;27.58;56.97;100398.03;5080102;28;45326;-81
2022/08/16 10:40:25;;;;;;;;;18.67;18.67;;;;;27.64;57.10;100397.94;5078721;28;45361;-79
2022/08/16 10:42:51;;;;;;;;;18.67;17.33;;;;;27.76;57.19;100406.50;5080340;28;46153;-80
2022/08/16 10:45:18;;;;;;;;;17.00;17.00;;;;;27.83;56.38;100409.66;5080068;28;45379;-79
2022/08/16 10:47:43;;;;;;;;;17.33;17.33;;;;;27.87;56.03;100404.41;5080396;28;45283;-78
2022/08/16 10:50:09;;;;;;;;;18.33;18.33;;;;;27.87;54.86;100409.88;5079913;28;45526;-79
2022/08/16 10:52:35;;;;;;;;;17.00;17.00;;;;;27.85;55.68;100396.53;5080297;28;46263;-79
2022/08/16 10:55:01;;;;;;;;;18.67;18.00;;;;;27.94;55.06;100406.75;5079677;28;45355;-78
2022/08/16 10:57:27;;;;;;;;;20.00;19.33;;;;;27.98;55.67;100405.84;5080430;28;45327;-79
2022/08/16 10:59:54;;;;;;;;;14.67;13.00;;;;;28.02;55.09;100400.59;5079872;28;45389;-78
2022/08/16 11:02:20;;;;;;;;;19.33;19.33;;;;;28.06;55.14;100403.53;5079647;28;45891;-78
2022/08/16 11:04:46;;;;;;;;;19.33;18.00;;;;;28.06;53.69;100401.59;5079986;28;45353;-78
2022/08/16 11:07:11;;;;;;;;;17.67;17.67;;;;;28.06;54.21;100406.25;5079909;28;45394;-81